sensor_id;sensor_type;location;lat;lon;timestamp;P1;durP1;ratioP1;P2;durP2;ratioP2
1276;SDS011;631;51.024;13.826;2023-02-28T00:01:26;20.17;;;18.50;;
1276;SDS011;631;51.024;13.826;2023-02-28T00:03:51;18.70;;;17.20;;
1276;SDS011;631;51.024;13.826;2023-02-28T00:06:17;19.37;;;17.87;;
1276;SDS011;631;51.024;13.826;2023-02-28T00:08:43;18.77;;;17.33;;
1276;SDS011;631;51.024;13.826;2023-02-28T00:11:09;19.23;;;17.73;;
1276;SDS011;631;51.024;13.826;2023-02-28T00:13:37;18.25;;;16.77;;
1276;SDS011;631;51.024;13.826;2023-02-28T00:16:06;18.80;;;17.50;;
1276;SDS011;631;51.024;13.826;2023-02-28T00:18:34;19.27;;;17.77;;
1276;SDS011;631;51.024;13.826;2023-02-28T00:21:00;17.77;;;16.40;;
1276;SDS011;631;51.024;13.826;2023-02-28T00:23:25;19.47;;;17.87;;
1276;SDS011;631;51.024;13.826;2023-02-28T00:25:52;18.70;;;17.25;;
1276;SDS011;631;51.024;13.826;2023-02-28T00:28:18;18.80;;;17.40;;
1276;SDS011;631;51.024;13.826;2023-02-28T00:30:44;17.80;;;16.50;;
1276;SDS011;631;51.024;13.826;2023-02-28T00:33:09;17.97;;;16.70;;
1276;SDS011;631;51.024;13.826;2023-02-28T00:35:35;18.70;;;17.20;;
1276;SDS011;631;51.024;13.826;2023-02-28T00:38:00;17.83;;;16.50;;
1276;SDS011;631;51.024;13.826;2023-02-28T00:40:26;17.87;;;16.57;;
1276;SDS011;631;51.024;13.826;2023-02-28T00:42:52;18.30;;;17.00;;
1276;SDS011;631;51.024;13.826;2023-02-28T00:45:17;18.63;;;17.27;;
1276;SDS011;631;51.024;13.826;2023-02-28T00:47:43;17.88;;;16.60;;
1276;SDS011;631;51.024;13.826;2023-02-28T00:50:11;19.33;;;17.73;;
1276;SDS011;631;51.024;13.826;2023-02-28T00:52:37;17.70;;;16.27;;
1276;SDS011;631;51.024;13.826;2023-02-28T00:55:03;19.50;;;17.93;;
1276;SDS011;631;51.024;13.826;2023-02-28T00:57:29;19.70;;;18.15;;
1276;SDS011;631;51.024;13.826;2023-02-28T00:59:54;18.33;;;17.03;;
1276;SDS011;631;51.024;13.826;2023-02-28T01:02:21;19.87;;;18.17;;
1276;SDS011;631;51.024;13.826;2023-02-28T01:04:47;19.30;;;17.83;;
1276;SDS011;631;51.024;13.826;2023-02-28T01:07:13;20.17;;;18.57;;
1276;SDS011;631;51.024;13.826;2023-02-28T01:09:39;19.00;;;17.60;;
1276;SDS011;631;51.024;13.826;2023-02-28T01:12:06;18.85;;;17.45;;
1276;SDS011;631;51.024;13.826;2023-02-28T01:14:32;19.40;;;17.88;;
1276;SDS011;631;51.024;13.826;2023-02-28T01:16:59;18.85;;;17.30;;
1276;SDS011;631;51.024;13.826;2023-02-28T01:19:25;18.73;;;17.43;;
1276;SDS011;631;51.024;13.826;2023-02-28T01:21:51;19.17;;;17.67;;
1276;SDS011;631;51.024;13.826;2023-02-28T01:24:16;18.93;;;17.50;;
1276;SDS011;631;51.024;13.826;2023-02-28T01:26:42;18.60;;;17.20;;
1276;SDS011;631;51.024;13.826;2023-02-28T01:29:07;19.27;;;17.87;;
1276;SDS011;631;51.024;13.826;2023-02-28T01:31:33;18.03;;;16.80;;
1276;SDS011;631;51.024;13.826;2023-02-28T01:33:59;19.33;;;17.77;;
1276;SDS011;631;51.024;13.826;2023-02-28T01:36:25;19.63;;;17.93;;
1276;SDS011;631;51.024;13.826;2023-02-28T01:38:51;19.20;;;17.65;;
1276;SDS011;631;51.024;13.826;2023-02-28T01:41:18;18.90;;;17.40;;
1276;SDS011;631;51.024;13.826;2023-02-28T01:43:56;20.20;;;18.70;;
1276;SDS011;631;51.024;13.826;2023-02-28T01:46:23;20.17;;;18.63;;
1276;SDS011;631;51.024;13.826;2023-02-28T01:49:09;20.37;;;18.57;;
1276;SDS011;631;51.024;13.826;2023-02-28T01:51:46;20.75;;;18.95;;
1276;SDS011;631;51.024;13.826;2023-02-28T01:54:18;20.55;;;18.95;;
1276;SDS011;631;51.024;13.826;2023-02-28T01:56:53;19.75;;;18.05;;
1276;SDS011;631;51.024;13.826;2023-02-28T01:59:27;19.23;;;17.70;;
1276;SDS011;631;51.024;13.826;2023-02-28T02:02:11;20.05;;;18.35;;
1276;SDS011;631;51.024;13.826;2023-02-28T02:04:39;20.17;;;18.48;;
1276;SDS011;631;51.024;13.826;2023-02-28T02:07:11;20.00;;;18.35;;
1276;SDS011;631;51.024;13.826;2023-02-28T02:09:38;20.38;;;18.65;;
1276;SDS011;631;51.024;13.826;2023-02-28T02:12:07;20.17;;;18.47;;
1276;SDS011;631;51.024;13.826;2023-02-28T02:17:38;19.88;;;18.20;;
1276;SDS011;631;51.024;13.826;2023-02-28T02:25:29;18.98;;;17.48;;
1276;SDS011;631;51.024;13.826;2023-02-28T02:33:41;20.60;;;18.90;;
1276;SDS011;631;51.024;13.826;2023-02-28T02:39:31;20.40;;;18.80;;
1276;SDS011;631;51.024;13.826;2023-02-28T02:42:16;19.60;;;17.98;;
1276;SDS011;631;51.024;13.826;2023-02-28T02:44:55;19.83;;;18.02;;
1276;SDS011;631;51.024;13.826;2023-02-28T02:47:25;20.02;;;18.38;;
1276;SDS011;631;51.024;13.826;2023-02-28T02:49:55;19.75;;;18.08;;
1276;SDS011;631;51.024;13.826;2023-02-28T02:52:24;20.05;;;18.25;;
1276;SDS011;631;51.024;13.826;2023-02-28T02:54:59;21.02;;;19.30;;
1276;SDS011;631;51.024;13.826;2023-02-28T02:57:31;20.52;;;18.92;;
1276;SDS011;631;51.024;13.826;2023-02-28T03:00:04;20.85;;;19.02;;
1276;SDS011;631;51.024;13.826;2023-02-28T03:02:33;21.60;;;19.80;;
1276;SDS011;631;51.024;13.826;2023-02-28T03:05:04;21.88;;;20.08;;
1276;SDS011;631;51.024;13.826;2023-02-28T03:07:39;20.70;;;19.20;;
1276;SDS011;631;51.024;13.826;2023-02-28T03:10:25;22.60;;;20.70;;
1276;SDS011;631;51.024;13.826;2023-02-28T03:13:03;24.00;;;21.77;;
1276;SDS011;631;51.024;13.826;2023-02-28T03:18:50;22.60;;;20.70;;
1276;SDS011;631;51.024;13.826;2023-02-28T03:21:34;22.58;;;20.42;;
1276;SDS011;631;51.024;13.826;2023-02-28T03:30:09;21.02;;;19.33;;
1276;SDS011;631;51.024;13.826;2023-02-28T03:32:46;23.35;;;21.45;;
1276;SDS011;631;51.024;13.826;2023-02-28T03:35:22;22.55;;;20.35;;
1276;SDS011;631;51.024;13.826;2023-02-28T03:37:53;22.42;;;20.58;;
1276;SDS011;631;51.024;13.826;2023-02-28T03:40:31;21.75;;;19.98;;
1276;SDS011;631;51.024;13.826;2023-02-28T03:43:02;23.08;;;21.08;;
1276;SDS011;631;51.024;13.826;2023-02-28T03:45:35;22.95;;;21.05;;
1276;SDS011;631;51.024;13.826;2023-02-28T03:48:03;24.00;;;21.90;;
1276;SDS011;631;51.024;13.826;2023-02-28T03:50:38;23.27;;;20.88;;
1276;SDS011;631;51.024;13.826;2023-02-28T03:53:08;24.63;;;22.27;;
1276;SDS011;631;51.024;13.826;2023-02-28T03:55:41;23.63;;;21.70;;
1276;SDS011;631;51.024;13.826;2023-02-28T04:01:05;23.30;;;21.08;;
1276;SDS011;631;51.024;13.826;2023-02-28T04:03:37;22.83;;;20.83;;
1276;SDS011;631;51.024;13.826;2023-02-28T04:06:04;23.63;;;21.42;;
1276;SDS011;631;51.024;13.826;2023-02-28T04:08:33;22.73;;;20.52;;
1276;SDS011;631;51.024;13.826;2023-02-28T04:11:01;23.57;;;21.60;;
1276;SDS011;631;51.024;13.826;2023-02-28T04:13:44;23.85;;;21.58;;
1276;SDS011;631;51.024;13.826;2023-02-28T04:16:10;23.87;;;21.70;;
1276;SDS011;631;51.024;13.826;2023-02-28T04:18:40;23.83;;;21.42;;
1276;SDS011;631;51.024;13.826;2023-02-28T04:21:08;22.75;;;20.75;;
1276;SDS011;631;51.024;13.826;2023-02-28T04:23:34;22.77;;;20.58;;
1276;SDS011;631;51.024;13.826;2023-02-28T04:26:00;22.90;;;20.60;;
1276;SDS011;631;51.024;13.826;2023-02-28T04:28:26;23.33;;;21.23;;
1276;SDS011;631;51.024;13.826;2023-02-28T04:31:02;21.57;;;19.57;;
1276;SDS011;631;51.024;13.826;2023-02-28T04:33:29;23.75;;;21.55;;
1276;SDS011;631;51.024;13.826;2023-02-28T04:36:03;23.58;;;21.08;;
1276;SDS011;631;51.024;13.826;2023-02-28T04:38:32;23.23;;;20.92;;
1276;SDS011;631;51.024;13.826;2023-02-28T04:40:59;23.05;;;20.95;;
1276;SDS011;631;51.024;13.826;2023-02-28T04:43:26;23.25;;;20.95;;
1276;SDS011;631;51.024;13.826;2023-02-28T04:45:52;22.73;;;20.25;;
1276;SDS011;631;51.024;13.826;2023-02-28T04:48:21;22.73;;;20.52;;
1276;SDS011;631;51.024;13.826;2023-02-28T04:50:48;24.00;;;21.70;;
1276;SDS011;631;51.024;13.826;2023-02-28T04:53:14;23.10;;;20.80;;
1276;SDS011;631;51.024;13.826;2023-02-28T04:55:39;23.87;;;21.23;;
1276;SDS011;631;51.024;13.826;2023-02-28T04:58:05;24.57;;;22.10;;
1276;SDS011;631;51.024;13.826;2023-02-28T05:00:31;23.03;;;20.83;;
1276;SDS011;631;51.024;13.826;2023-02-28T05:02:56;23.90;;;21.50;;
1276;SDS011;631;51.024;13.826;2023-02-28T05:05:22;23.73;;;20.50;;
1276;SDS011;631;51.024;13.826;2023-02-28T05:07:47;24.83;;;22.23;;
1276;SDS011;631;51.024;13.826;2023-02-28T05:10:13;25.37;;;22.87;;
1276;SDS011;631;51.024;13.826;2023-02-28T05:12:39;25.67;;;23.13;;
1276;SDS011;631;51.024;13.826;2023-02-28T05:15:04;27.50;;;24.60;;
1276;SDS011;631;51.024;13.826;2023-02-28T05:17:30;27.08;;;24.15;;
1276;SDS011;631;51.024;13.826;2023-02-28T05:19:56;29.70;;;23.30;;
1276;SDS011;631;51.024;13.826;2023-02-28T05:22:22;27.10;;;24.50;;
1276;SDS011;631;51.024;13.826;2023-02-28T05:24:47;24.70;;;22.20;;
1276;SDS011;631;51.024;13.826;2023-02-28T05:27:13;26.97;;;24.17;;
1276;SDS011;631;51.024;13.826;2023-02-28T05:29:39;27.67;;;24.87;;
1276;SDS011;631;51.024;13.826;2023-02-28T05:32:10;24.77;;;22.13;;
1276;SDS011;631;51.024;13.826;2023-02-28T05:34:40;24.33;;;21.98;;
1276;SDS011;631;51.024;13.826;2023-02-28T05:37:06;25.15;;;22.45;;
1276;SDS011;631;51.024;13.826;2023-02-28T05:39:36;25.20;;;22.63;;
1276;SDS011;631;51.024;13.826;2023-02-28T05:42:02;27.20;;;24.30;;
1276;SDS011;631;51.024;13.826;2023-02-28T05:44:28;26.70;;;24.10;;
1276;SDS011;631;51.024;13.826;2023-02-28T05:46:53;26.90;;;24.00;;
1276;SDS011;631;51.024;13.826;2023-02-28T05:49:19;27.37;;;23.80;;
1276;SDS011;631;51.024;13.826;2023-02-28T05:51:44;26.37;;;23.77;;
1276;SDS011;631;51.024;13.826;2023-02-28T05:54:10;29.50;;;24.60;;
1276;SDS011;631;51.024;13.826;2023-02-28T05:56:36;27.17;;;24.30;;
1276;SDS011;631;51.024;13.826;2023-02-28T05:59:04;27.10;;;23.55;;
1276;SDS011;631;51.024;13.826;2023-02-28T06:01:35;25.73;;;23.13;;
1276;SDS011;631;51.024;13.826;2023-02-28T06:04:03;27.17;;;23.85;;
1276;SDS011;631;51.024;13.826;2023-02-28T06:06:30;26.55;;;23.83;;
1276;SDS011;631;51.024;13.826;2023-02-28T06:08:56;27.30;;;24.60;;
1276;SDS011;631;51.024;13.826;2023-02-28T06:11:22;26.98;;;24.10;;
1276;SDS011;631;51.024;13.826;2023-02-28T06:13:53;28.70;;;25.73;;
1276;SDS011;631;51.024;13.826;2023-02-28T06:16:20;34.67;;;29.02;;
1276;SDS011;631;51.024;13.826;2023-02-28T06:18:46;30.50;;;26.07;;
1276;SDS011;631;51.024;13.826;2023-02-28T06:21:12;26.57;;;23.77;;
1276;SDS011;631;51.024;13.826;2023-02-28T06:23:41;25.83;;;23.25;;
1276;SDS011;631;51.024;13.826;2023-02-28T06:26:06;25.33;;;22.63;;
1276;SDS011;631;51.024;13.826;2023-02-28T06:28:32;27.77;;;22.00;;
1276;SDS011;631;51.024;13.826;2023-02-28T06:30:57;26.23;;;23.60;;
1276;SDS011;631;51.024;13.826;2023-02-28T06:33:23;28.43;;;24.37;;
1276;SDS011;631;51.024;13.826;2023-02-28T06:35:50;30.42;;;27.13;;
1276;SDS011;631;51.024;13.826;2023-02-28T06:38:16;28.20;;;25.17;;
1276;SDS011;631;51.024;13.826;2023-02-28T06:40:43;26.67;;;23.90;;
1276;SDS011;631;51.024;13.826;2023-02-28T06:43:09;29.73;;;24.23;;
1276;SDS011;631;51.024;13.826;2023-02-28T06:45:40;30.05;;;25.10;;
1276;SDS011;631;51.024;13.826;2023-02-28T06:48:07;26.27;;;23.45;;
1276;SDS011;631;51.024;13.826;2023-02-28T06:50:32;26.63;;;22.40;;
1276;SDS011;631;51.024;13.826;2023-02-28T06:52:58;25.47;;;23.00;;
1276;SDS011;631;51.024;13.826;2023-02-28T06:55:24;24.20;;;21.87;;
1276;SDS011;631;51.024;13.826;2023-02-28T06:57:49;27.50;;;24.40;;
1276;SDS011;631;51.024;13.826;2023-02-28T07:00:15;35.85;;;28.60;;
1276;SDS011;631;51.024;13.826;2023-02-28T07:02:41;32.73;;;27.53;;
1276;SDS011;631;51.024;13.826;2023-02-28T07:05:07;26.53;;;23.83;;
1276;SDS011;631;51.024;13.826;2023-02-28T07:07:33;28.52;;;23.70;;
1276;SDS011;631;51.024;13.826;2023-02-28T07:10:01;25.63;;;22.70;;
1276;SDS011;631;51.024;13.826;2023-02-28T07:12:26;25.40;;;21.87;;
1276;SDS011;631;51.024;13.826;2023-02-28T07:14:52;23.53;;;21.07;;
1276;SDS011;631;51.024;13.826;2023-02-28T07:17:19;26.42;;;22.05;;
1276;SDS011;631;51.024;13.826;2023-02-28T07:19:58;26.23;;;23.50;;
1276;SDS011;631;51.024;13.826;2023-02-28T07:22:24;25.07;;;22.50;;
1276;SDS011;631;51.024;13.826;2023-02-28T07:24:49;23.77;;;21.37;;
1276;SDS011;631;51.024;13.826;2023-02-28T07:27:15;24.20;;;20.30;;
1276;SDS011;631;51.024;13.826;2023-02-28T07:29:48;23.60;;;21.35;;
1276;SDS011;631;51.024;13.826;2023-02-28T07:32:14;23.00;;;20.75;;
1276;SDS011;631;51.024;13.826;2023-02-28T07:34:40;22.97;;;20.77;;
1276;SDS011;631;51.024;13.826;2023-02-28T07:37:06;23.93;;;21.63;;
1276;SDS011;631;51.024;13.826;2023-02-28T07:39:31;22.03;;;20.03;;
1276;SDS011;631;51.024;13.826;2023-02-28T07:41:57;21.10;;;18.83;;
1276;SDS011;631;51.024;13.826;2023-02-28T07:44:24;21.58;;;19.35;;
1276;SDS011;631;51.024;13.826;2023-02-28T07:46:50;20.60;;;18.52;;
1276;SDS011;631;51.024;13.826;2023-02-28T07:49:16;21.67;;;19.57;;
1276;SDS011;631;51.024;13.826;2023-02-28T07:51:41;21.27;;;19.07;;
1276;SDS011;631;51.024;13.826;2023-02-28T07:54:07;24.20;;;21.80;;
1276;SDS011;631;51.024;13.826;2023-02-28T07:56:33;22.10;;;20.00;;
1276;SDS011;631;51.024;13.826;2023-02-28T07:58:58;22.97;;;20.70;;
1276;SDS011;631;51.024;13.826;2023-02-28T08:01:24;23.37;;;20.63;;
1276;SDS011;631;51.024;13.826;2023-02-28T08:03:49;23.97;;;20.77;;
1276;SDS011;631;51.024;13.826;2023-02-28T08:06:19;23.10;;;20.73;;
1276;SDS011;631;51.024;13.826;2023-02-28T08:08:47;23.05;;;20.65;;
1276;SDS011;631;51.024;13.826;2023-02-28T08:11:13;23.15;;;20.10;;
1276;SDS011;631;51.024;13.826;2023-02-28T08:13:39;24.50;;;22.00;;
1276;SDS011;631;51.024;13.826;2023-02-28T08:16:07;23.80;;;21.40;;
1276;SDS011;631;51.024;13.826;2023-02-28T08:18:33;22.70;;;20.33;;
1276;SDS011;631;51.024;13.826;2023-02-28T08:20:58;23.80;;;21.53;;
1276;SDS011;631;51.024;13.826;2023-02-28T08:23:24;22.38;;;20.38;;
1276;SDS011;631;51.024;13.826;2023-02-28T08:25:54;22.73;;;20.53;;
1276;SDS011;631;51.024;13.826;2023-02-28T08:28:20;22.60;;;20.40;;
1276;SDS011;631;51.024;13.826;2023-02-28T08:30:46;23.85;;;21.45;;
1276;SDS011;631;51.024;13.826;2023-02-28T08:33:12;21.80;;;19.53;;
1276;SDS011;631;51.024;13.826;2023-02-28T08:35:37;23.87;;;21.57;;
1276;SDS011;631;51.024;13.826;2023-02-28T08:38:03;20.70;;;18.77;;
1276;SDS011;631;51.024;13.826;2023-02-28T08:40:29;22.70;;;20.37;;
1276;SDS011;631;51.024;13.826;2023-02-28T08:42:54;23.00;;;20.90;;
1276;SDS011;631;51.024;13.826;2023-02-28T08:45:20;22.13;;;20.03;;
1276;SDS011;631;51.024;13.826;2023-02-28T08:47:45;24.03;;;21.63;;
1276;SDS011;631;51.024;13.826;2023-02-28T08:50:11;22.67;;;20.50;;
1276;SDS011;631;51.024;13.826;2023-02-28T08:52:41;22.38;;;20.40;;
1276;SDS011;631;51.024;13.826;2023-02-28T08:55:08;22.52;;;20.25;;
1276;SDS011;631;51.024;13.826;2023-02-28T08:57:34;22.63;;;20.40;;
1276;SDS011;631;51.024;13.826;2023-02-28T09:00:00;23.00;;;20.60;;
1276;SDS011;631;51.024;13.826;2023-02-28T09:02:29;24.00;;;21.90;;
1276;SDS011;631;51.024;13.826;2023-02-28T09:04:58;21.85;;;20.05;;
1276;SDS011;631;51.024;13.826;2023-02-28T09:07:24;23.03;;;21.13;;
1276;SDS011;631;51.024;13.826;2023-02-28T09:09:50;22.25;;;20.20;;
1276;SDS011;631;51.024;13.826;2023-02-28T09:12:19;23.07;;;21.10;;
1276;SDS011;631;51.024;13.826;2023-02-28T09:14:46;24.07;;;22.07;;
1276;SDS011;631;51.024;13.826;2023-02-28T09:17:11;22.47;;;20.27;;
1276;SDS011;631;51.024;13.826;2023-02-28T09:19:37;22.50;;;20.60;;
1276;SDS011;631;51.024;13.826;2023-02-28T09:22:03;20.13;;;18.50;;
1276;SDS011;631;51.024;13.826;2023-02-28T09:24:28;21.63;;;19.73;;
1276;SDS011;631;51.024;13.826;2023-02-28T09:26:56;20.97;;;18.97;;
1276;SDS011;631;51.024;13.826;2023-02-28T09:29:22;20.50;;;19.00;;
1276;SDS011;631;51.024;13.826;2023-02-28T09:31:47;21.07;;;19.17;;
1276;SDS011;631;51.024;13.826;2023-02-28T09:34:13;22.10;;;20.50;;
1276;SDS011;631;51.024;13.826;2023-02-28T09:36:39;20.40;;;18.67;;
1276;SDS011;631;51.024;13.826;2023-02-28T09:39:04;19.70;;;18.20;;
1276;SDS011;631;51.024;13.826;2023-02-28T09:41:38;20.07;;;18.57;;
1276;SDS011;631;51.024;13.826;2023-02-28T09:47:11;18.37;;;17.00;;
1276;SDS011;631;51.024;13.826;2023-02-28T09:50:17;20.43;;;18.90;;
1276;SDS011;631;51.024;13.826;2023-02-28T09:53:02;20.37;;;18.87;;
1276;SDS011;631;51.024;13.826;2023-02-28T09:55:52;18.27;;;16.87;;
1276;SDS011;631;51.024;13.826;2023-02-28T09:58:39;19.33;;;17.80;;
1276;SDS011;631;51.024;13.826;2023-02-28T10:04:00;20.23;;;18.73;;
1276;SDS011;631;51.024;13.826;2023-02-28T10:06:44;21.33;;;19.70;;
1276;SDS011;631;51.024;13.826;2023-02-28T10:09:16;20.70;;;19.20;;
1276;SDS011;631;51.024;13.826;2023-02-28T10:11:49;19.63;;;18.23;;
1276;SDS011;631;51.024;13.826;2023-02-28T10:14:26;21.20;;;19.67;;
1276;SDS011;631;51.024;13.826;2023-02-28T10:16:55;20.40;;;18.90;;
1276;SDS011;631;51.024;13.826;2023-02-28T10:25:21;21.87;;;20.17;;
1276;SDS011;631;51.024;13.826;2023-02-28T10:28:13;22.40;;;20.80;;
1276;SDS011;631;51.024;13.826;2023-02-28T10:30:59;22.20;;;20.60;;
1276;SDS011;631;51.024;13.826;2023-02-28T10:33:34;22.00;;;20.33;;
1276;SDS011;631;51.024;13.826;2023-02-28T10:36:01;21.23;;;19.63;;
1276;SDS011;631;51.024;13.826;2023-02-28T10:38:32;20.17;;;18.57;;
1276;SDS011;631;51.024;13.826;2023-02-28T10:41:06;21.57;;;19.97;;
1276;SDS011;631;51.024;13.826;2023-02-28T10:43:36;22.20;;;20.70;;
1276;SDS011;631;51.024;13.826;2023-02-28T10:46:09;22.43;;;20.83;;
1276;SDS011;631;51.024;13.826;2023-02-28T10:48:48;19.83;;;18.43;;
1276;SDS011;631;51.024;13.826;2023-02-28T10:51:24;20.30;;;19.00;;
1276;SDS011;631;51.024;13.826;2023-02-28T10:53:52;21.47;;;19.93;;
1276;SDS011;631;51.024;13.826;2023-02-28T10:56:23;22.27;;;20.67;;
1276;SDS011;631;51.024;13.826;2023-02-28T11:01:35;21.17;;;19.67;;
1276;SDS011;631;51.024;13.826;2023-02-28T11:09:51;21.20;;;19.80;;
1276;SDS011;631;51.024;13.826;2023-02-28T11:12:36;21.47;;;19.93;;
1276;SDS011;631;51.024;13.826;2023-02-28T11:15:28;22.50;;;20.80;;
1276;SDS011;631;51.024;13.826;2023-02-28T11:18:14;21.83;;;20.40;;
1276;SDS011;631;51.024;13.826;2023-02-28T11:20:46;20.80;;;19.40;;
1276;SDS011;631;51.024;13.826;2023-02-28T11:23:14;21.83;;;20.33;;
1276;SDS011;631;51.024;13.826;2023-02-28T11:25:46;21.37;;;19.77;;
1276;SDS011;631;51.024;13.826;2023-02-28T11:28:29;20.73;;;19.37;;
1276;SDS011;631;51.024;13.826;2023-02-28T11:31:02;21.33;;;19.83;;
1276;SDS011;631;51.024;13.826;2023-02-28T11:33:32;21.10;;;19.60;;
1276;SDS011;631;51.024;13.826;2023-02-28T11:36:26;21.63;;;19.93;;
1276;SDS011;631;51.024;13.826;2023-02-28T11:38:54;22.13;;;20.50;;
1276;SDS011;631;51.024;13.826;2023-02-28T11:46:58;20.47;;;18.97;;
1276;SDS011;631;51.024;13.826;2023-02-28T11:49:35;20.43;;;19.03;;
1276;SDS011;631;51.024;13.826;2023-02-28T11:52:19;20.57;;;19.17;;
1276;SDS011;631;51.024;13.826;2023-02-28T11:55:03;20.63;;;19.20;;
1276;SDS011;631;51.024;13.826;2023-02-28T12:03:11;20.33;;;18.83;;
1276;SDS011;631;51.024;13.826;2023-02-28T12:14:18;21.27;;;19.87;;
1276;SDS011;631;51.024;13.826;2023-02-28T12:20:25;21.63;;;20.07;;
1276;SDS011;631;51.024;13.826;2023-02-28T12:28:41;22.00;;;20.33;;
1276;SDS011;631;51.024;13.826;2023-02-28T12:31:29;21.00;;;19.60;;
1276;SDS011;631;51.024;13.826;2023-02-28T12:34:01;20.63;;;19.33;;
1276;SDS011;631;51.024;13.826;2023-02-28T12:36:31;22.50;;;20.90;;
1276;SDS011;631;51.024;13.826;2023-02-28T12:39:45;22.03;;;20.53;;
1276;SDS011;631;51.024;13.826;2023-02-28T12:41:54;20.50;;;19.07;;
1276;SDS011;631;51.024;13.826;2023-02-28T12:46:54;21.07;;;19.57;;
1276;SDS011;631;51.024;13.826;2023-02-28T12:49:25;20.77;;;19.13;;
1276;SDS011;631;51.024;13.826;2023-02-28T12:51:57;22.67;;;21.27;;
1276;SDS011;631;51.024;13.826;2023-02-28T12:54:39;22.53;;;21.00;;
1276;SDS011;631;51.024;13.826;2023-02-28T13:00:12;22.97;;;21.33;;
1276;SDS011;631;51.024;13.826;2023-02-28T13:08:04;23.40;;;21.73;;
1276;SDS011;631;51.024;13.826;2023-02-28T13:10:44;22.20;;;20.47;;
1276;SDS011;631;51.024;13.826;2023-02-28T13:13:21;22.80;;;21.10;;
1276;SDS011;631;51.024;13.826;2023-02-28T13:15:59;23.67;;;21.80;;
1276;SDS011;631;51.024;13.826;2023-02-28T13:18:31;21.73;;;20.13;;
1276;SDS011;631;51.024;13.826;2023-02-28T13:21:08;24.73;;;22.90;;
1276;SDS011;631;51.024;13.826;2023-02-28T13:26:21;24.00;;;22.20;;
1276;SDS011;631;51.024;13.826;2023-02-28T13:32:18;23.97;;;22.07;;
1276;SDS011;631;51.024;13.826;2023-02-28T13:34:39;23.53;;;21.83;;
1276;SDS011;631;51.024;13.826;2023-02-28T13:47:35;23.70;;;21.97;;
1276;SDS011;631;51.024;13.826;2023-02-28T14:11:39;24.20;;;22.40;;
1276;SDS011;631;51.024;13.826;2023-02-28T14:14:07;25.77;;;23.80;;
1276;SDS011;631;51.024;13.826;2023-02-28T14:19:19;22.77;;;21.07;;
1276;SDS011;631;51.024;13.826;2023-02-28T14:22:15;25.20;;;23.30;;
1276;SDS011;631;51.024;13.826;2023-02-28T14:25:25;24.07;;;22.33;;
1276;SDS011;631;51.024;13.826;2023-02-28T14:29:07;23.53;;;21.73;;
1276;SDS011;631;51.024;13.826;2023-02-28T14:31:13;23.53;;;21.73;;
1276;SDS011;631;51.024;13.826;2023-02-28T14:39:19;25.67;;;23.47;;
1276;SDS011;631;51.024;13.826;2023-02-28T14:41:47;25.27;;;23.33;;
1276;SDS011;631;51.024;13.826;2023-02-28T14:46:41;24.80;;;22.90;;
1276;SDS011;631;51.024;13.826;2023-02-28T14:49:21;24.30;;;22.30;;
1276;SDS011;631;51.024;13.826;2023-02-28T14:54:44;26.37;;;24.27;;
1276;SDS011;631;51.024;13.826;2023-02-28T14:57:23;26.27;;;23.90;;
1276;SDS011;631;51.024;13.826;2023-02-28T14:59:58;25.47;;;23.57;;
1276;SDS011;631;51.024;13.826;2023-02-28T15:02:37;25.67;;;23.53;;
1276;SDS011;631;51.024;13.826;2023-02-28T15:07:35;26.80;;;24.60;;
1276;SDS011;631;51.024;13.826;2023-02-28T15:12:57;25.10;;;23.10;;
1276;SDS011;631;51.024;13.826;2023-02-28T15:15:26;27.53;;;25.07;;
1276;SDS011;631;51.024;13.826;2023-02-28T15:18:16;24.70;;;22.80;;
1276;SDS011;631;51.024;13.826;2023-02-28T15:20:55;26.00;;;23.77;;
1276;SDS011;631;51.024;13.826;2023-02-28T15:23:23;26.80;;;24.57;;
1276;SDS011;631;51.024;13.826;2023-02-28T15:25:49;26.13;;;24.10;;
1276;SDS011;631;51.024;13.826;2023-02-28T15:28:17;27.53;;;25.10;;
1276;SDS011;631;51.024;13.826;2023-02-28T15:30:52;25.97;;;23.87;;
1276;SDS011;631;51.024;13.826;2023-02-28T15:33:38;27.33;;;24.93;;
1276;SDS011;631;51.024;13.826;2023-02-28T15:36:29;28.17;;;25.80;;
1276;SDS011;631;51.024;13.826;2023-02-28T15:38:56;26.90;;;24.63;;
1276;SDS011;631;51.024;13.826;2023-02-28T15:41:27;27.77;;;25.37;;
1276;SDS011;631;51.024;13.826;2023-02-28T15:47:01;28.40;;;25.87;;
1276;SDS011;631;51.024;13.826;2023-02-28T15:49:31;26.83;;;24.57;;
1276;SDS011;631;51.024;13.826;2023-02-28T15:52:05;26.87;;;24.43;;
1276;SDS011;631;51.024;13.826;2023-02-28T15:54:34;25.93;;;23.70;;
1276;SDS011;631;51.024;13.826;2023-02-28T15:57:05;24.77;;;22.53;;
1276;SDS011;631;51.024;13.826;2023-02-28T16:00:04;27.07;;;24.60;;
1276;SDS011;631;51.024;13.826;2023-02-28T16:02:36;28.27;;;25.80;;
1276;SDS011;631;51.024;13.826;2023-02-28T16:07:34;25.92;;;23.67;;
1276;SDS011;631;51.024;13.826;2023-02-28T16:10:02;29.30;;;26.60;;
1276;SDS011;631;51.024;13.826;2023-02-28T16:12:29;26.90;;;24.60;;
1276;SDS011;631;51.024;13.826;2023-02-28T16:14:57;25.90;;;23.40;;
1276;SDS011;631;51.024;13.826;2023-02-28T16:17:29;25.92;;;23.60;;
1276;SDS011;631;51.024;13.826;2023-02-28T16:19:58;26.92;;;24.58;;
1276;SDS011;631;51.024;13.826;2023-02-28T16:22:23;25.83;;;23.48;;
1276;SDS011;631;51.024;13.826;2023-02-28T16:24:49;26.33;;;23.87;;
1276;SDS011;631;51.024;13.826;2023-02-28T16:27:16;26.17;;;23.57;;
1276;SDS011;631;51.024;13.826;2023-02-28T16:29:45;25.42;;;23.23;;
1276;SDS011;631;51.024;13.826;2023-02-28T16:32:13;24.75;;;22.55;;
1276;SDS011;631;51.024;13.826;2023-02-28T16:34:40;26.13;;;23.63;;
1276;SDS011;631;51.024;13.826;2023-02-28T16:37:13;27.10;;;24.50;;
1276;SDS011;631;51.024;13.826;2023-02-28T16:39:42;26.83;;;24.33;;
1276;SDS011;631;51.024;13.826;2023-02-28T16:42:15;25.63;;;23.20;;
1276;SDS011;631;51.024;13.826;2023-02-28T16:44:46;27.08;;;24.55;;
1276;SDS011;631;51.024;13.826;2023-02-28T16:47:12;26.17;;;23.77;;
1276;SDS011;631;51.024;13.826;2023-02-28T16:49:38;25.87;;;23.30;;
1276;SDS011;631;51.024;13.826;2023-02-28T16:52:06;25.52;;;23.13;;
1276;SDS011;631;51.024;13.826;2023-02-28T16:54:32;27.80;;;24.90;;
1276;SDS011;631;51.024;13.826;2023-02-28T16:56:58;25.83;;;23.27;;
1276;SDS011;631;51.024;13.826;2023-02-28T16:59:24;25.67;;;23.10;;
1276;SDS011;631;51.024;13.826;2023-02-28T17:01:52;24.75;;;22.52;;
1276;SDS011;631;51.024;13.826;2023-02-28T17:04:18;27.83;;;23.65;;
1276;SDS011;631;51.024;13.826;2023-02-28T17:06:44;25.90;;;23.40;;
1276;SDS011;631;51.024;13.826;2023-02-28T17:09:17;26.70;;;24.03;;
1276;SDS011;631;51.024;13.826;2023-02-28T17:11:47;27.35;;;24.60;;
1276;SDS011;631;51.024;13.826;2023-02-28T17:14:14;25.70;;;23.10;;
1276;SDS011;631;51.024;13.826;2023-02-28T17:16:40;26.98;;;23.63;;
1276;SDS011;631;51.024;13.826;2023-02-28T17:19:09;26.80;;;24.10;;
1276;SDS011;631;51.024;13.826;2023-02-28T17:21:38;34.40;;;24.00;;
1276;SDS011;631;51.024;13.826;2023-02-28T17:24:04;27.13;;;24.30;;
1276;SDS011;631;51.024;13.826;2023-02-28T17:26:29;26.30;;;23.60;;
1276;SDS011;631;51.024;13.826;2023-02-28T17:28:57;27.50;;;24.70;;
1276;SDS011;631;51.024;13.826;2023-02-28T17:31:26;30.85;;;25.52;;
1276;SDS011;631;51.024;13.826;2023-02-28T17:33:52;27.38;;;24.52;;
1276;SDS011;631;51.024;13.826;2023-02-28T17:36:20;29.25;;;25.60;;
1276;SDS011;631;51.024;13.826;2023-02-28T17:38:48;32.25;;;26.70;;